sensor_id;sensor_type;location;lat;lon;timestamp;P1;durP1;ratioP1;P2;durP2;ratioP2
20970;SDS011;10644;48.834;10.088;2022-08-19T00:03:37;19.03;;;17.03;;
20970;SDS011;10644;48.834;10.088;2022-08-19T00:06:11;19.57;;;17.17;;
20970;SDS011;10644;48.834;10.088;2022-08-19T00:08:36;22.03;;;16.90;;
20970;SDS011;10644;48.834;10.088;2022-08-19T00:11:02;26.30;;;17.80;;
20970;SDS011;10644;48.834;10.088;2022-08-19T00:16:17;25.57;;;19.87;;
20970;SDS011;10644;48.834;10.088;2022-08-19T00:18:54;31.27;;;18.53;;
20970;SDS011;10644;48.834;10.088;2022-08-19T00:21:20;23.50;;;19.17;;
20970;SDS011;10644;48.834;10.088;2022-08-19T00:31:57;24.07;;;19.50;;
20970;SDS011;10644;48.834;10.088;2022-08-19T00:34:33;25.73;;;19.87;;
20970;SDS011;10644;48.834;10.088;2022-08-19T00:37:04;26.17;;;21.13;;
20970;SDS011;10644;48.834;10.088;2022-08-19T00:39:44;30.73;;;22.13;;
20970;SDS011;10644;48.834;10.088;2022-08-19T00:45:11;29.27;;;21.37;;
20970;SDS011;10644;48.834;10.088;2022-08-19T00:47:45;30.87;;;21.77;;
20970;SDS011;10644;48.834;10.088;2022-08-19T00:50:28;28.67;;;22.77;;
20970;SDS011;10644;48.834;10.088;2022-08-19T00:52:55;33.83;;;23.10;;
20970;SDS011;10644;48.834;10.088;2022-08-19T00:55:27;30.90;;;21.50;;
20970;SDS011;10644;48.834;10.088;2022-08-19T00:58:04;31.13;;;21.37;;
20970;SDS011;10644;48.834;10.088;2022-08-19T01:00:34;37.00;;;22.30;;
20970;SDS011;10644;48.834;10.088;2022-08-19T01:06:22;30.83;;;21.57;;
20970;SDS011;10644;48.834;10.088;2022-08-19T01:09:01;46.40;;;24.37;;
20970;SDS011;10644;48.834;10.088;2022-08-19T01:11:38;36.93;;;23.57;;
20970;SDS011;10644;48.834;10.088;2022-08-19T01:14:16;31.37;;;22.90;;
20970;SDS011;10644;48.834;10.088;2022-08-19T01:16:57;33.57;;;23.40;;
20970;SDS011;10644;48.834;10.088;2022-08-19T01:28:35;29.43;;;23.13;;
20970;SDS011;10644;48.834;10.088;2022-08-19T01:31:13;33.67;;;24.13;;
20970;SDS011;10644;48.834;10.088;2022-08-19T01:33:49;32.13;;;22.97;;
20970;SDS011;10644;48.834;10.088;2022-08-19T01:42:11;40.13;;;23.60;;
20970;SDS011;10644;48.834;10.088;2022-08-19T01:47:36;38.90;;;24.73;;
20970;SDS011;10644;48.834;10.088;2022-08-19T01:52:49;31.50;;;24.10;;
20970;SDS011;10644;48.834;10.088;2022-08-19T01:55:31;37.70;;;26.07;;
20970;SDS011;10644;48.834;10.088;2022-08-19T01:57:58;38.03;;;25.20;;
20970;SDS011;10644;48.834;10.088;2022-08-19T02:00:28;37.00;;;25.27;;
20970;SDS011;10644;48.834;10.088;2022-08-19T02:02:58;32.43;;;26.13;;
20970;SDS011;10644;48.834;10.088;2022-08-19T02:05:31;34.83;;;25.93;;
20970;SDS011;10644;48.834;10.088;2022-08-19T02:08:01;33.33;;;24.97;;
20970;SDS011;10644;48.834;10.088;2022-08-19T02:10:29;31.63;;;23.50;;
20970;SDS011;10644;48.834;10.088;2022-08-19T02:13:12;36.83;;;25.23;;
20970;SDS011;10644;48.834;10.088;2022-08-19T02:15:44;34.17;;;25.47;;
20970;SDS011;10644;48.834;10.088;2022-08-19T02:18:24;36.07;;;24.90;;
20970;SDS011;10644;48.834;10.088;2022-08-19T02:21:02;33.33;;;24.63;;
20970;SDS011;10644;48.834;10.088;2022-08-19T02:23:32;29.80;;;23.50;;
20970;SDS011;10644;48.834;10.088;2022-08-19T02:28:44;30.43;;;24.97;;
20970;SDS011;10644;48.834;10.088;2022-08-19T02:31:13;37.20;;;25.80;;
20970;SDS011;10644;48.834;10.088;2022-08-19T02:33:58;30.93;;;24.10;;
20970;SDS011;10644;48.834;10.088;2022-08-19T02:36:32;39.70;;;25.70;;
20970;SDS011;10644;48.834;10.088;2022-08-19T02:38:58;33.90;;;25.40;;
20970;SDS011;10644;48.834;10.088;2022-08-19T02:41:25;36.67;;;24.93;;
20970;SDS011;10644;48.834;10.088;2022-08-19T02:43:54;37.30;;;26.27;;
20970;SDS011;10644;48.834;10.088;2022-08-19T02:46:23;34.80;;;26.00;;
20970;SDS011;10644;48.834;10.088;2022-08-19T02:48:54;43.20;;;25.67;;
20970;SDS011;10644;48.834;10.088;2022-08-19T02:51:27;37.37;;;25.77;;
20970;SDS011;10644;48.834;10.088;2022-08-19T02:54:00;49.40;;;25.13;;
20970;SDS011;10644;48.834;10.088;2022-08-19T02:56:33;36.53;;;24.87;;
20970;SDS011;10644;48.834;10.088;2022-08-19T02:59:10;35.40;;;24.40;;
20970;SDS011;10644;48.834;10.088;2022-08-19T03:01:42;30.27;;;24.00;;
20970;SDS011;10644;48.834;10.088;2022-08-19T03:06:45;36.70;;;24.53;;
20970;SDS011;10644;48.834;10.088;2022-08-19T03:09:17;37.80;;;25.27;;
20970;SDS011;10644;48.834;10.088;2022-08-19T03:11:45;32.60;;;24.97;;
20970;SDS011;10644;48.834;10.088;2022-08-19T03:14:29;32.33;;;24.20;;
20970;SDS011;10644;48.834;10.088;2022-08-19T03:16:58;34.27;;;25.03;;
20970;SDS011;10644;48.834;10.088;2022-08-19T03:19:25;35.80;;;24.23;;
20970;SDS011;10644;48.834;10.088;2022-08-19T03:21:54;32.90;;;23.97;;
20970;SDS011;10644;48.834;10.088;2022-08-19T03:24:20;37.07;;;22.90;;
20970;SDS011;10644;48.834;10.088;2022-08-19T03:26:56;34.13;;;24.93;;
20970;SDS011;10644;48.834;10.088;2022-08-19T03:29:25;37.30;;;27.57;;
20970;SDS011;10644;48.834;10.088;2022-08-19T03:32:00;37.03;;;26.53;;
20970;SDS011;10644;48.834;10.088;2022-08-19T03:37:31;35.83;;;27.10;;
20970;SDS011;10644;48.834;10.088;2022-08-19T03:39:56;41.80;;;27.77;;
20970;SDS011;10644;48.834;10.088;2022-08-19T03:42:22;35.03;;;25.67;;
20970;SDS011;10644;48.834;10.088;2022-08-19T03:44:47;35.57;;;27.63;;
20970;SDS011;10644;48.834;10.088;2022-08-19T03:47:16;42.53;;;28.83;;
20970;SDS011;10644;48.834;10.088;2022-08-19T03:49:43;34.13;;;25.70;;
20970;SDS011;10644;48.834;10.088;2022-08-19T03:52:16;34.67;;;26.60;;
20970;SDS011;10644;48.834;10.088;2022-08-19T03:54:55;38.93;;;28.13;;
20970;SDS011;10644;48.834;10.088;2022-08-19T03:57:31;37.03;;;26.73;;
20970;SDS011;10644;48.834;10.088;2022-08-19T03:59:58;38.70;;;27.00;;
20970;SDS011;10644;48.834;10.088;2022-08-19T04:02:25;35.17;;;27.17;;
20970;SDS011;10644;48.834;10.088;2022-08-19T04:04:52;40.67;;;28.87;;
20970;SDS011;10644;48.834;10.088;2022-08-19T04:07:23;38.87;;;29.80;;
20970;SDS011;10644;48.834;10.088;2022-08-19T04:09:56;39.97;;;28.60;;
20970;SDS011;10644;48.834;10.088;2022-08-19T04:12:22;42.27;;;30.10;;
20970;SDS011;10644;48.834;10.088;2022-08-19T04:14:55;44.10;;;30.53;;
20970;SDS011;10644;48.834;10.088;2022-08-19T04:17:33;41.93;;;29.17;;
20970;SDS011;10644;48.834;10.088;2022-08-19T04:19:59;42.60;;;29.90;;
20970;SDS011;10644;48.834;10.088;2022-08-19T04:24:58;39.23;;;29.50;;
20970;SDS011;10644;48.834;10.088;2022-08-19T04:27:27;37.40;;;27.30;;
20970;SDS011;10644;48.834;10.088;2022-08-19T04:29:59;38.60;;;29.70;;
20970;SDS011;10644;48.834;10.088;2022-08-19T04:35:23;44.67;;;30.50;;
20970;SDS011;10644;48.834;10.088;2022-08-19T04:40:46;45.20;;;29.20;;
20970;SDS011;10644;48.834;10.088;2022-08-19T04:43:31;47.40;;;30.57;;
20970;SDS011;10644;48.834;10.088;2022-08-19T04:46:08;42.00;;;29.17;;
20970;SDS011;10644;48.834;10.088;2022-08-19T04:51:20;47.47;;;30.13;;
20970;SDS011;10644;48.834;10.088;2022-08-19T04:53:45;50.60;;;30.43;;
20970;SDS011;10644;48.834;10.088;2022-08-19T04:56:29;45.73;;;31.33;;
20970;SDS011;10644;48.834;10.088;2022-08-19T04:58:55;64.73;;;32.83;;
20970;SDS011;10644;48.834;10.088;2022-08-19T05:01:26;47.03;;;30.27;;
20970;SDS011;10644;48.834;10.088;2022-08-19T05:04:10;46.50;;;30.27;;
20970;SDS011;10644;48.834;10.088;2022-08-19T05:09:17;44.43;;;32.27;;
20970;SDS011;10644;48.834;10.088;2022-08-19T05:11:52;45.83;;;31.07;;
20970;SDS011;10644;48.834;10.088;2022-08-19T05:16:47;43.07;;;30.10;;
20970;SDS011;10644;48.834;10.088;2022-08-19T05:19:13;41.80;;;27.93;;
20970;SDS011;10644;48.834;10.088;2022-08-19T05:21:59;39.90;;;24.03;;
20970;SDS011;10644;48.834;10.088;2022-08-19T05:24:50;44.57;;;28.43;;
20970;SDS011;10644;48.834;10.088;2022-08-19T05:27:18;36.27;;;28.30;;
20970;SDS011;10644;48.834;10.088;2022-08-19T05:29:44;40.00;;;28.50;;
20970;SDS011;10644;48.834;10.088;2022-08-19T05:32:10;44.43;;;27.93;;
20970;SDS011;10644;48.834;10.088;2022-08-19T05:34:44;55.40;;;30.73;;
20970;SDS011;10644;48.834;10.088;2022-08-19T05:37:20;44.47;;;30.13;;
20970;SDS011;10644;48.834;10.088;2022-08-19T05:39:47;42.53;;;30.67;;
20970;SDS011;10644;48.834;10.088;2022-08-19T05:42:31;37.43;;;26.93;;
20970;SDS011;10644;48.834;10.088;2022-08-19T05:44:57;42.90;;;29.43;;
20970;SDS011;10644;48.834;10.088;2022-08-19T05:47:25;40.17;;;28.17;;
20970;SDS011;10644;48.834;10.088;2022-08-19T05:49:50;42.67;;;29.83;;
20970;SDS011;10644;48.834;10.088;2022-08-19T05:52:25;44.23;;;30.90;;
20970;SDS011;10644;48.834;10.088;2022-08-19T05:54:53;61.13;;;36.30;;
20970;SDS011;10644;48.834;10.088;2022-08-19T05:57:20;48.03;;;30.93;;
20970;SDS011;10644;48.834;10.088;2022-08-19T05:59:50;39.60;;;29.20;;
20970;SDS011;10644;48.834;10.088;2022-08-19T06:02:16;42.27;;;28.97;;
20970;SDS011;10644;48.834;10.088;2022-08-19T06:04:44;38.80;;;28.07;;
20970;SDS011;10644;48.834;10.088;2022-08-19T06:07:09;42.93;;;28.27;;
20970;SDS011;10644;48.834;10.088;2022-08-19T06:09:36;40.67;;;28.27;;
20970;SDS011;10644;48.834;10.088;2022-08-19T06:17:02;44.97;;;30.30;;
20970;SDS011;10644;48.834;10.088;2022-08-19T06:21:57;41.17;;;28.57;;
20970;SDS011;10644;48.834;10.088;2022-08-19T06:24:26;42.23;;;26.80;;
20970;SDS011;10644;48.834;10.088;2022-08-19T06:29:30;39.80;;;26.97;;
20970;SDS011;10644;48.834;10.088;2022-08-19T06:31:59;40.47;;;27.23;;
20970;SDS011;10644;48.834;10.088;2022-08-19T06:34:27;37.63;;;26.47;;
20970;SDS011;10644;48.834;10.088;2022-08-19T06:42:08;34.40;;;26.33;;
20970;SDS011;10644;48.834;10.088;2022-08-19T06:47:29;41.67;;;27.17;;
20970;SDS011;10644;48.834;10.088;2022-08-19T06:50:02;37.87;;;26.93;;
20970;SDS011;10644;48.834;10.088;2022-08-19T06:52:46;41.57;;;27.00;;
20970;SDS011;10644;48.834;10.088;2022-08-19T06:55:28;40.03;;;26.47;;
20970;SDS011;10644;48.834;10.088;2022-08-19T06:57:56;39.90;;;25.97;;
20970;SDS011;10644;48.834;10.088;2022-08-19T07:00:39;38.63;;;28.00;;
20970;SDS011;10644;48.834;10.088;2022-08-19T07:03:07;45.10;;;30.00;;
20970;SDS011;10644;48.834;10.088;2022-08-19T07:10:59;38.47;;;26.00;;
20970;SDS011;10644;48.834;10.088;2022-08-19T07:13:26;44.20;;;29.87;;
20970;SDS011;10644;48.834;10.088;2022-08-19T07:15:58;37.60;;;27.20;;
20970;SDS011;10644;48.834;10.088;2022-08-19T07:18:27;39.50;;;27.10;;
20970;SDS011;10644;48.834;10.088;2022-08-19T07:21:02;44.53;;;30.47;;
20970;SDS011;10644;48.834;10.088;2022-08-19T07:23:34;50.17;;;29.10;;
20970;SDS011;10644;48.834;10.088;2022-08-19T07:28:47;45.67;;;28.70;;
20970;SDS011;10644;48.834;10.088;2022-08-19T07:31:22;35.20;;;25.50;;
20970;SDS011;10644;48.834;10.088;2022-08-19T07:34:48;38.67;;;29.00;;
20970;SDS011;10644;48.834;10.088;2022-08-19T07:40:05;41.23;;;28.27;;
20970;SDS011;10644;48.834;10.088;2022-08-19T07:42:37;37.93;;;25.70;;
20970;SDS011;10644;48.834;10.088;2022-08-19T07:45:06;48.63;;;29.50;;
20970;SDS011;10644;48.834;10.088;2022-08-19T07:47:47;44.10;;;28.97;;
20970;SDS011;10644;48.834;10.088;2022-08-19T07:50:16;41.33;;;28.20;;
20970;SDS011;10644;48.834;10.088;2022-08-19T07:52:45;44.00;;;27.60;;
20970;SDS011;10644;48.834;10.088;2022-08-19T07:55:14;45.30;;;29.90;;
20970;SDS011;10644;48.834;10.088;2022-08-19T07:57:59;42.40;;;30.13;;
20970;SDS011;10644;48.834;10.088;2022-08-19T08:00:37;43.77;;;29.37;;
20970;SDS011;10644;48.834;10.088;2022-08-19T08:03:05;42.67;;;32.00;;
20970;SDS011;10644;48.834;10.088;2022-08-19T08:05:35;64.03;;;32.27;;
20970;SDS011;10644;48.834;10.088;2022-08-19T08:08:25;42.90;;;28.10;;
20970;SDS011;10644;48.834;10.088;2022-08-19T08:11:00;44.03;;;28.80;;
20970;SDS011;10644;48.834;10.088;2022-08-19T08:13:31;45.00;;;28.87;;
20970;SDS011;10644;48.834;10.088;2022-08-19T08:16:00;52.20;;;30.30;;
20970;SDS011;10644;48.834;10.088;2022-08-19T08:18:26;44.20;;;29.30;;
20970;SDS011;10644;48.834;10.088;2022-08-19T08:20:52;43.93;;;29.07;;
20970;SDS011;10644;48.834;10.088;2022-08-19T08:23:19;45.27;;;28.30;;
20970;SDS011;10644;48.834;10.088;2022-08-19T08:25:52;50.40;;;29.50;;
20970;SDS011;10644;48.834;10.088;2022-08-19T08:30:52;49.20;;;30.27;;
20970;SDS011;10644;48.834;10.088;2022-08-19T08:33:24;42.23;;;27.23;;
20970;SDS011;10644;48.834;10.088;2022-08-19T08:35:52;41.43;;;27.40;;
20970;SDS011;10644;48.834;10.088;2022-08-19T08:38:17;36.70;;;26.10;;
20970;SDS011;10644;48.834;10.088;2022-08-19T08:48:56;37.97;;;26.83;;
20970;SDS011;10644;48.834;10.088;2022-08-19T08:51:48;64.50;;;30.60;;
20970;SDS011;10644;48.834;10.088;2022-08-19T08:54:23;51.90;;;30.17;;
20970;SDS011;10644;48.834;10.088;2022-08-19T08:59:43;47.93;;;29.33;;
20970;SDS011;10644;48.834;10.088;2022-08-19T09:02:15;45.53;;;27.43;;
20970;SDS011;10644;48.834;10.088;2022-08-19T09:04:45;48.10;;;28.70;;
20970;SDS011;10644;48.834;10.088;2022-08-19T09:07:23;42.90;;;27.73;;
20970;SDS011;10644;48.834;10.088;2022-08-19T09:13:12;51.23;;;29.30;;
20970;SDS011;10644;48.834;10.088;2022-08-19T09:15:44;44.90;;;28.90;;
20970;SDS011;10644;48.834;10.088;2022-08-19T09:18:16;63.90;;;32.77;;
20970;SDS011;10644;48.834;10.088;2022-08-19T09:20:42;52.63;;;30.60;;
20970;SDS011;10644;48.834;10.088;2022-08-19T09:23:14;42.50;;;28.73;;
20970;SDS011;10644;48.834;10.088;2022-08-19T09:25:53;51.60;;;29.43;;
20970;SDS011;10644;48.834;10.088;2022-08-19T09:28:34;54.23;;;31.70;;
20970;SDS011;10644;48.834;10.088;2022-08-19T09:31:01;79.30;;;36.97;;
20970;SDS011;10644;48.834;10.088;2022-08-19T09:33:29;48.07;;;30.70;;
20970;SDS011;10644;48.834;10.088;2022-08-19T09:41:33;48.63;;;28.90;;
20970;SDS011;10644;48.834;10.088;2022-08-19T09:43:59;44.53;;;26.63;;
20970;SDS011;10644;48.834;10.088;2022-08-19T09:46:30;55.83;;;29.70;;
20970;SDS011;10644;48.834;10.088;2022-08-19T09:48:57;49.87;;;27.67;;
20970;SDS011;10644;48.834;10.088;2022-08-19T09:56:54;47.40;;;27.10;;
20970;SDS011;10644;48.834;10.088;2022-08-19T10:04:46;45.97;;;27.27;;
20970;SDS011;10644;48.834;10.088;2022-08-19T10:10:17;43.10;;;27.50;;
20970;SDS011;10644;48.834;10.088;2022-08-19T10:12:50;42.37;;;27.80;;
20970;SDS011;10644;48.834;10.088;2022-08-19T10:15:25;43.80;;;28.00;;
20970;SDS011;10644;48.834;10.088;2022-08-19T10:20:43;38.97;;;25.83;;
20970;SDS011;10644;48.834;10.088;2022-08-19T10:25:58;51.23;;;28.07;;
20970;SDS011;10644;48.834;10.088;2022-08-19T10:28:27;42.07;;;26.97;;
20970;SDS011;10644;48.834;10.088;2022-08-19T10:34:02;89.43;;;31.10;;
20970;SDS011;10644;48.834;10.088;2022-08-19T10:39:10;47.10;;;26.57;;
20970;SDS011;10644;48.834;10.088;2022-08-19T10:41:39;45.37;;;27.93;;
20970;SDS011;10644;48.834;10.088;2022-08-19T10:44:12;42.83;;;26.47;;
20970;SDS011;10644;48.834;10.088;2022-08-19T10:46:42;48.37;;;27.43;;
20970;SDS011;10644;48.834;10.088;2022-08-19T10:49:15;44.83;;;27.17;;
20970;SDS011;10644;48.834;10.088;2022-08-19T10:51:47;45.20;;;26.67;;
20970;SDS011;10644;48.834;10.088;2022-08-19T10:54:44;42.97;;;28.63;;
20970;SDS011;10644;48.834;10.088;2022-08-19T10:57:31;44.97;;;27.90;;
20970;SDS011;10644;48.834;10.088;2022-08-19T11:00:03;41.30;;;27.63;;
20970;SDS011;10644;48.834;10.088;2022-08-19T11:02:30;42.23;;;27.50;;
20970;SDS011;10644;48.834;10.088;2022-08-19T11:07:51;44.43;;;25.60;;
20970;SDS011;10644;48.834;10.088;2022-08-19T11:10:19;55.43;;;30.30;;
20970;SDS011;10644;48.834;10.088;2022-08-19T11:12:52;41.83;;;27.43;;
20970;SDS011;10644;48.834;10.088;2022-08-19T11:15:30;44.60;;;28.77;;
20970;SDS011;10644;48.834;10.088;2022-08-19T11:18:03;65.13;;;34.37;;
20970;SDS011;10644;48.834;10.088;2022-08-19T11:20:30;51.00;;;32.20;;
20970;SDS011;10644;48.834;10.088;2022-08-19T11:23:07;61.07;;;38.00;;
20970;SDS011;10644;48.834;10.088;2022-08-19T11:25:46;63.60;;;36.87;;
20970;SDS011;10644;48.834;10.088;2022-08-19T11:28:14;48.60;;;30.50;;
20970;SDS011;10644;48.834;10.088;2022-08-19T11:30:40;46.20;;;30.37;;
20970;SDS011;10644;48.834;10.088;2022-08-19T11:33:16;58.03;;;31.47;;
20970;SDS011;10644;48.834;10.088;2022-08-19T11:35:43;41.23;;;27.50;;
20970;SDS011;10644;48.834;10.088;2022-08-19T11:38:11;41.53;;;28.30;;
20970;SDS011;10644;48.834;10.088;2022-08-19T11:40:53;48.43;;;27.77;;
20970;SDS011;10644;48.834;10.088;2022-08-19T11:43:40;45.70;;;29.73;;
20970;SDS011;10644;48.834;10.088;2022-08-19T11:46:09;62.40;;;33.10;;
20970;SDS011;10644;48.834;10.088;2022-08-19T11:48:48;58.47;;;30.93;;
20970;SDS011;10644;48.834;10.088;2022-08-19T11:51:18;55.43;;;32.07;;
20970;SDS011;10644;48.834;10.088;2022-08-19T11:53:52;51.20;;;31.77;;
20970;SDS011;10644;48.834;10.088;2022-08-19T11:59:11;52.20;;;30.40;;
20970;SDS011;10644;48.834;10.088;2022-08-19T12:01:37;40.77;;;29.37;;
20970;SDS011;10644;48.834;10.088;2022-08-19T12:07:10;57.33;;;29.37;;
20970;SDS011;10644;48.834;10.088;2022-08-19T12:09:49;41.77;;;28.00;;
20970;SDS011;10644;48.834;10.088;2022-08-19T12:14:57;44.83;;;28.07;;
20970;SDS011;10644;48.834;10.088;2022-08-19T12:17:25;48.20;;;30.90;;
20970;SDS011;10644;48.834;10.088;2022-08-19T12:19:54;42.93;;;29.77;;
20970;SDS011;10644;48.834;10.088;2022-08-19T12:22:22;50.80;;;32.40;;
20970;SDS011;10644;48.834;10.088;2022-08-19T12:27:38;48.87;;;29.13;;
20970;SDS011;10644;48.834;10.088;2022-08-19T12:33:38;49.43;;;28.67;;
20970;SDS011;10644;48.834;10.088;2022-08-19T12:36:05;47.83;;;31.37;;
20970;SDS011;10644;48.834;10.088;2022-08-19T12:38:41;44.90;;;29.70;;
20970;SDS011;10644;48.834;10.088;2022-08-19T12:41:10;68.10;;;32.80;;
20970;SDS011;10644;48.834;10.088;2022-08-19T12:43:39;48.20;;;31.13;;
20970;SDS011;10644;48.834;10.088;2022-08-19T12:46:09;43.50;;;28.80;;
20970;SDS011;10644;48.834;10.088;2022-08-19T12:48:54;38.67;;;26.00;;
20970;SDS011;10644;48.834;10.088;2022-08-19T12:56:52;37.80;;;25.80;;
20970;SDS011;10644;48.834;10.088;2022-08-19T12:59:32;41.50;;;26.03;;
20970;SDS011;10644;48.834;10.088;2022-08-19T13:04:31;39.13;;;24.17;;
20970;SDS011;10644;48.834;10.088;2022-08-19T13:07:00;49.20;;;26.90;;
20970;SDS011;10644;48.834;10.088;2022-08-19T13:12:17;46.30;;;24.33;;
20970;SDS011;10644;48.834;10.088;2022-08-19T13:14:45;34.80;;;24.53;;
20970;SDS011;10644;48.834;10.088;2022-08-19T13:17:17;31.93;;;22.50;;
20970;SDS011;10644;48.834;10.088;2022-08-19T13:22:38;31.80;;;22.40;;
20970;SDS011;10644;48.834;10.088;2022-08-19T13:25:05;29.67;;;20.97;;
20970;SDS011;10644;48.834;10.088;2022-08-19T13:27:31;26.83;;;18.80;;
20970;SDS011;10644;48.834;10.088;2022-08-19T13:29:56;24.80;;;18.57;;
20970;SDS011;10644;48.834;10.088;2022-08-19T13:32:40;29.43;;;17.23;;
20970;SDS011;10644;48.834;10.088;2022-08-19T13:35:25;28.20;;;17.17;;
20970;SDS011;10644;48.834;10.088;2022-08-19T13:37:51;20.30;;;14.43;;
20970;SDS011;10644;48.834;10.088;2022-08-19T13:40:17;22.53;;;15.37;;
20970;SDS011;10644;48.834;10.088;2022-08-19T13:42:47;26.43;;;15.47;;
20970;SDS011;10644;48.834;10.088;2022-08-19T13:45:17;26.77;;;17.37;;
20970;SDS011;10644;48.834;10.088;2022-08-19T13:47:48;32.90;;;19.80;;
20970;SDS011;10644;48.834;10.088;2022-08-19T13:50:16;23.60;;;16.23;;
20970;SDS011;10644;48.834;10.088;2022-08-19T13:52:52;22.07;;;16.17;;
20970;SDS011;10644;48.834;10.088;2022-08-19T13:55:18;32.00;;;16.67;;
20970;SDS011;10644;48.834;10.088;2022-08-19T13:57:45;21.27;;;14.80;;
20970;SDS011;10644;48.834;10.088;2022-08-19T14:00:16;23.43;;;15.90;;
20970;SDS011;10644;48.834;10.088;2022-08-19T14:02:43;24.67;;;17.87;;
20970;SDS011;10644;48.834;10.088;2022-08-19T14:05:12;29.10;;;18.27;;
20970;SDS011;10644;48.834;10.088;2022-08-19T14:07:39;23.90;;;17.17;;
20970;SDS011;10644;48.834;10.088;2022-08-19T14:10:06;24.53;;;17.73;;
20970;SDS011;10644;48.834;10.088;2022-08-19T14:12:34;30.53;;;17.50;;
20970;SDS011;10644;48.834;10.088;2022-08-19T14:15:00;33.80;;;20.90;;
20970;SDS011;10644;48.834;10.088;2022-08-19T14:17:28;35.03;;;21.17;;
20970;SDS011;10644;48.834;10.088;2022-08-19T14:19:59;27.83;;;18.10;;
20970;SDS011;10644;48.834;10.088;2022-08-19T14:22:34;32.07;;;20.73;;
20970;SDS011;10644;48.834;10.088;2022-08-19T14:25:02;24.57;;;18.77;;
20970;SDS011;10644;48.834;10.088;2022-08-19T14:27:29;37.37;;;21.80;;
20970;SDS011;10644;48.834;10.088;2022-08-19T14:29:54;32.10;;;21.30;;
20970;SDS011;10644;48.834;10.088;2022-08-19T14:32:20;38.87;;;24.37;;
20970;SDS011;10644;48.834;10.088;2022-08-19T14:34:46;39.23;;;24.90;;
20970;SDS011;10644;48.834;10.088;2022-08-19T14:37:12;31.90;;;23.53;;
20970;SDS011;10644;48.834;10.088;2022-08-19T14:39:41;35.37;;;22.60;;
20970;SDS011;10644;48.834;10.088;2022-08-19T14:42:10;57.80;;;32.97;;
20970;SDS011;10644;48.834;10.088;2022-08-19T14:44:36;43.17;;;25.10;;
20970;SDS011;10644;48.834;10.088;2022-08-19T14:47:02;28.93;;;21.23;;
20970;SDS011;10644;48.834;10.088;2022-08-19T14:49:28;38.70;;;25.80;;
20970;SDS011;10644;48.834;10.088;2022-08-19T14:51:54;32.50;;;19.07;;
20970;SDS011;10644;48.834;10.088;2022-08-19T14:54:19;25.10;;;17.50;;
20970;SDS011;10644;48.834;10.088;2022-08-19T14:56:45;27.87;;;19.27;;
20970;SDS011;10644;48.834;10.088;2022-08-19T14:59:16;30.80;;;19.50;;
20970;SDS011;10644;48.834;10.088;2022-08-19T15:01:43;26.83;;;18.17;;
20970;SDS011;10644;48.834;10.088;2022-08-19T15:04:08;25.73;;;18.43;;
20970;SDS011;10644;48.834;10.088;2022-08-19T15:06:35;27.60;;;19.33;;
20970;SDS011;10644;48.834;10.088;2022-08-19T15:09:02;28.30;;;19.80;;
20970;SDS011;10644;48.834;10.088;2022-08-19T15:11:31;42.83;;;22.63;;
20970;SDS011;10644;48.834;10.088;2022-08-19T15:14:03;26.80;;;18.80;;
20970;SDS011;10644;48.834;10.088;2022-08-19T15:16:32;35.33;;;24.90;;
20970;SDS011;10644;48.834;10.088;2022-08-19T15:18:58;31.33;;;20.67;;
20970;SDS011;10644;48.834;10.088;2022-08-19T15:21:25;38.80;;;20.20;;
20970;SDS011;10644;48.834;10.088;2022-08-19T15:23:52;27.63;;;19.83;;
20970;SDS011;10644;48.834;10.088;2022-08-19T15:26:19;29.27;;;19.10;;
20970;SDS011;10644;48.834;10.088;2022-08-19T15:28:46;28.23;;;20.50;;
20970;SDS011;10644;48.834;10.088;2022-08-19T15:31:12;27.43;;;19.40;;
20970;SDS011;10644;48.834;10.088;2022-08-19T15:33:41;27.50;;;16.00;;
20970;SDS011;10644;48.834;10.088;2022-08-19T15:36:07;29.10;;;18.63;;
20970;SDS011;10644;48.834;10.088;2022-08-19T15:38:34;23.93;;;17.00;;
20970;SDS011;10644;48.834;10.088;2022-08-19T15:41:00;27.67;;;20.03;;
20970;SDS011;10644;48.834;10.088;2022-08-19T15:43:46;26.80;;;18.73;;
20970;SDS011;10644;48.834;10.088;2022-08-19T15:46:15;30.63;;;19.57;;
20970;SDS011;10644;48.834;10.088;2022-08-19T15:48:42;30.87;;;21.53;;
20970;SDS011;10644;48.834;10.088;2022-08-19T15:51:08;26.77;;;19.33;;
20970;SDS011;10644;48.834;10.088;2022-08-19T15:53:33;28.57;;;20.00;;
20970;SDS011;10644;48.834;10.088;2022-08-19T15:55:59;28.70;;;20.90;;
20970;SDS011;10644;48.834;10.088;2022-08-19T15:58:24;23.63;;;17.27;;
20970;SDS011;10644;48.834;10.088;2022-08-19T16:01:08;25.17;;;18.70;;
20970;SDS011;10644;48.834;10.088;2022-08-19T16:03:53;28.87;;;17.80;;
20970;SDS011;10644;48.834;10.088;2022-08-19T16:06:46;28.37;;;18.00;;
20970;SDS011;10644;48.834;10.088;2022-08-19T16:09:17;19.63;;;15.43;;
20970;SDS011;10644;48.834;10.088;2022-08-19T16:11:46;28.43;;;16.20;;
20970;SDS011;10644;48.834;10.088;2022-08-19T16:14:16;24.17;;;16.23;;
20970;SDS011;10644;48.834;10.088;2022-08-19T16:16:43;21.90;;;16.77;;
20970;SDS011;10644;48.834;10.088;2022-08-19T16:19:11;25.83;;;17.73;;
20970;SDS011;10644;48.834;10.088;2022-08-19T16:21:39;23.07;;;16.60;;
20970;SDS011;10644;48.834;10.088;2022-08-19T16:24:08;25.93;;;18.10;;
20970;SDS011;10644;48.834;10.088;2022-08-19T16:26:36;27.73;;;18.93;;
20970;SDS011;10644;48.834;10.088;2022-08-19T16:29:20;22.77;;;16.90;;
20970;SDS011;10644;48.834;10.088;2022-08-19T16:31:51;27.73;;;17.67;;
20970;SDS011;10644;48.834;10.088;2022-08-19T16:34:19;22.70;;;16.50;;
20970;SDS011;10644;48.834;10.088;2022-08-19T16:36:57;29.07;;;18.47;;
20970;SDS011;10644;48.834;10.088;2022-08-19T16:39:24;35.60;;;19.60;;
20970;SDS011;10644;48.834;10.088;2022-08-19T16:44:47;29.87;;;17.47;;
20970;SDS011;10644;48.834;10.088;2022-08-19T16:47:13;21.23;;;15.73;;
20970;SDS011;10644;48.834;10.088;2022-08-19T16:49:46;20.50;;;15.90;;
20970;SDS011;10644;48.834;10.088;2022-08-19T16:52:21;23.80;;;16.60;;
20970;SDS011;10644;48.834;10.088;2022-08-19T16:55:03;23.83;;;17.70;;
20970;SDS011;10644;48.834;10.088;2022-08-19T16:57:40;24.67;;;17.57;;
20970;SDS011;10644;48.834;10.088;2022-08-19T17:00:07;29.43;;;17.87;;
20970;SDS011;10644;48.834;10.088;2022-08-19T17:02:42;28.40;;;17.40;;
20970;SDS011;10644;48.834;10.088;2022-08-19T17:05:08;24.90;;;18.37;;
20970;SDS011;10644;48.834;10.088;2022-08-19T17:07:34;27.40;;;20.60;;
20970;SDS011;10644;48.834;10.088;2022-08-19T17:10:00;25.47;;;18.67;;
20970;SDS011;10644;48.834;10.088;2022-08-19T17:12:28;27.70;;;19.83;;
20970;SDS011;10644;48.834;10.088;2022-08-19T17:14:55;34.67;;;22.30;;
20970;SDS011;10644;48.834;10.088;2022-08-19T17:17:20;31.07;;;19.90;;
20970;SDS011;10644;48.834;10.088;2022-08-19T17:19:46;32.30;;;21.00;;
20970;SDS011;10644;48.834;10.088;2022-08-19T17:22:13;33.20;;;20.90;;
20970;SDS011;10644;48.834;10.088;2022-08-19T17:24:39;29.20;;;19.70;;
20970;SDS011;10644;48.834;10.088;2022-08-19T17:29:36;29.00;;;19.80;;